Time;durP1;ratioP1;P1;durP2;ratioP2;P2;SDS_P1;SDS_P2;PMS_P1;PMS_P2;Temp;Humidity;BMP_temperature;BMP_pressure;BME280_temperature;BME280_humidity;BME280_pressure;Samples;Min_cycle;Max_cycle;Signal;HPM_P1;HPM_P2
2021/06/06 00:01:20;;;;;;;44.90;23.92;;;15.40;87.90;14.60;102270.00;;;;5007973;28;20059;-83
2021/06/06 00:03:51;;;;;;;44.53;24.25;;;15.30;87.80;14.50;102273.00;;;;5021167;28;20048;-83
2021/06/06 00:06:31;;;;;;;43.47;24.95;;;15.30;88.10;14.50;102266.00;;;;5018847;28;20531;-83
2021/06/06 00:08:58;;;;;;;41.03;24.45;;;15.30;88.20;14.50;102281.00;;;;5021288;28;20079;-83
2021/06/06 00:11:30;;;;;;;49.38;24.52;;;;;14.50;102270.00;;;;5012940;28;20025;-83
2021/06/06 00:14:00;;;;;;;41.67;23.27;;;15.30;88.30;14.60;102272.00;;;;5028175;28;20163;-83
2021/06/06 00:16:53;;;;;;;48.47;25.20;;;15.30;88.50;14.60;102277.00;;;;5036682;28;20101;-83
2021/06/06 00:19:21;;;;;;;37.15;21.95;;;15.30;88.50;14.60;102269.00;;;;5042878;28;20519;-83
2021/06/06 00:21:48;;;;;;;43.35;23.45;;;15.30;88.60;14.70;102270.00;;;;5025703;28;20041;-83
2021/06/06 00:24:19;;;;;;;46.72;24.15;;;15.40;88.70;14.70;102277.00;;;;5026430;28;20045;-82
2021/06/06 00:26:45;;;;;;;47.65;24.60;;;15.40;88.60;14.70;102279.00;;;;5011818;28;20037;-83
2021/06/06 00:29:12;;;;;;;39.17;22.27;;;15.40;88.60;14.80;102279.00;;;;5037958;28;20183;-83
2021/06/06 00:31:38;;;;;;;43.03;24.70;;;;;14.70;102282.00;;;;5012575;28;20098;-83
2021/06/06 00:34:05;;;;;;;46.65;24.10;;;15.40;88.60;14.70;102266.00;;;;5017678;28;20046;-83
2021/06/06 00:36:32;;;;;;;47.95;25.60;;;;;14.70;102277.00;;;;5041666;28;20093;-82
2021/06/06 00:38:58;;;;;;;48.85;25.92;;;15.40;88.90;14.60;102278.00;;;;5041542;28;20583;-82
2021/06/06 00:41:28;;;;;;;49.90;26.02;;;15.30;88.70;14.60;102288.00;;;;5021078;28;20446;-83
2021/06/06 00:43:58;;;;;;;54.70;28.05;;;15.30;88.90;14.60;102292.00;;;;5042458;28;20049;-83
2021/06/06 00:46:28;;;;;;;54.13;28.33;;;15.30;89.00;14.50;102292.00;;;;5042104;28;20110;-83
2021/06/06 00:48:58;;;;;;;56.03;26.90;;;15.30;89.50;14.50;102284.00;;;;5025448;28;20076;-82
2021/06/06 00:51:54;;;;;;;62.17;28.88;;;15.30;89.50;14.50;102293.00;;;;5041468;28;20036;-82
2021/06/06 00:54:28;;;;;;;54.20;26.52;;;;;14.50;102296.00;;;;5019754;28;20053;-84
2021/06/06 00:57:03;;;;;;;42.20;24.27;;;15.30;89.80;14.50;102297.00;;;;5027833;28;20835;-81
2021/06/06 00:59:34;;;;;;;50.27;26.97;;;15.20;89.80;14.50;102291.00;;;;5009508;28;20474;-83
2021/06/06 01:02:00;;;;;;;52.22;25.90;;;15.20;89.60;14.50;102284.00;;;;5027934;28;20283;-82
2021/06/06 01:04:27;;;;;;;44.58;23.90;;;15.20;89.80;14.50;102294.00;;;;5040168;28;20119;-83
2021/06/06 01:06:55;;;;;;;50.22;26.23;;;15.20;89.70;14.50;102288.00;;;;5037799;28;20046;-83
2021/06/06 01:09:26;;;;;;;46.10;27.75;;;15.20;89.60;14.40;102283.00;;;;5026662;28;20469;-83
2021/06/06 01:11:58;;;;;;;;;;;15.60;90.00;14.30;102282.00;;;;5005585;28;20038;-83
2021/06/06 01:14:39;;;;;;;52.35;26.67;;;15.10;89.70;14.30;102291.00;;;;5034386;28;19955;-82
2021/06/06 01:17:21;;;;;;;52.30;27.63;;;15.10;90.00;14.30;102282.00;;;;5006893;28;20082;-83
2021/06/06 01:20:17;;;;;;;57.17;28.23;;;14.90;90.20;14.30;102278.00;;;;5038547;28;20814;-83
2021/06/06 01:22:54;;;;;;;49.03;27.73;;;15.10;90.10;14.30;102280.00;;;;5019931;28;20072;-87
2021/06/06 01:25:38;;;;;;;56.63;29.20;;;15.10;90.00;14.30;102282.00;;;;5020247;28;20052;-82
2021/06/06 01:28:07;;;;;;;58.13;28.45;;;15.10;90.00;14.30;102274.00;;;;5020741;28;20124;-83
2021/06/06 01:30:43;;;;;;;53.88;28.45;;;15.10;90.10;14.30;102284.00;;;;5020247;28;20978;-83
2021/06/06 01:33:42;;;;;;;59.45;30.13;;;15.10;90.00;14.30;102267.00;;;;5002253;28;20064;-84
2021/06/06 01:36:21;;;;;;;58.15;29.02;;;15.10;90.00;14.30;102270.00;;;;5017025;28;20045;-83
2021/06/06 01:39:01;;;;;;;68.45;31.15;;;15.00;90.20;14.30;102283.00;;;;4999627;28;20125;-84
2021/06/06 01:41:40;;;;;;;56.28;30.00;;;15.00;90.10;14.20;102276.00;;;;5001452;28;20159;-83
2021/06/06 01:44:19;;;;;;;61.97;31.10;;;15.00;90.30;14.20;102278.00;;;;5003990;28;20048;-84
2021/06/06 01:47:14;;;;;;;64.78;31.20;;;;;14.20;102276.00;;;;5018864;28;20099;-84
2021/06/06 01:49:51;;;;;;;62.58;31.05;;;15.00;90.20;14.20;102276.00;;;;5015223;28;20048;-84
2021/06/06 01:52:28;;;;;;;74.22;32.03;;;15.00;90.30;14.20;102272.00;;;;5000917;28;20045;-83
2021/06/06 01:54:55;;;;;;;64.38;32.60;;;15.00;90.20;14.20;102271.00;;;;4998466;28;20052;-83
2021/06/06 01:57:24;;;;;;;69.38;33.70;;;;;14.20;102266.00;;;;4986936;28;20053;-85
2021/06/06 01:59:58;;;;;;;62.08;30.23;;;15.00;90.30;14.30;102267.00;;;;5002063;28;20041;-83
2021/06/06 02:02:26;;;;;;;75.32;33.72;;;15.00;90.30;14.30;102268.00;;;;5016721;28;20406;-83
2021/06/06 02:04:53;;;;;;;74.70;34.35;;;15.00;90.30;14.30;102262.00;;;;5002503;28;20047;-85
2021/06/06 02:07:23;;;;;;;69.25;32.10;;;15.00;90.40;14.20;102256.00;;;;5011603;28;20043;-84
2021/06/06 02:10:12;;;;;;;62.65;33.70;;;15.00;90.30;14.20;102277.00;;;;5019035;28;20071;-84
2021/06/06 02:12:45;;;;;;;74.22;35.38;;;15.00;90.30;14.30;102267.00;;;;4988409;28;20490;-84
2021/06/06 02:15:23;;;;;;;82.13;36.25;;;15.10;90.30;14.30;102280.00;;;;4984831;28;20056;-84
2021/06/06 02:18:08;;;;;;;82.63;36.42;;;15.00;90.30;14.30;102271.00;;;;5005792;28;20053;-85
2021/06/06 02:20:46;;;;;;;84.10;36.90;;;15.00;90.20;14.30;102263.00;;;;5018686;28;20053;-84
2021/06/06 02:23:23;;;;;;;92.72;37.95;;;15.00;90.30;14.30;102267.00;;;;5034270;28;20048;-84
2021/06/06 02:25:57;;;;;;;83.47;36.33;;;15.00;90.00;14.20;102271.00;;;;5017570;28;20048;-82
2021/06/06 02:28:44;;;;;;;90.18;39.78;;;15.00;90.10;14.20;102257.00;;;;4996979;28;20049;-84
2021/06/06 02:31:35;;;;;;;82.63;37.50;;;;;14.20;102266.00;;;;5017343;28;20140;-85
2021/06/06 02:34:26;;;;;;;82.90;38.03;;;15.00;90.30;14.30;102273.00;;;;5034823;28;20064;-83
2021/06/06 02:37:12;;;;;;;89.22;37.70;;;15.00;90.20;14.30;102275.00;;;;5028271;28;20932;-84
2021/06/06 02:39:48;;;;;;;83.68;36.33;;;15.00;90.20;14.30;102274.00;;;;5017493;28;20047;-84
2021/06/06 02:42:30;;;;;;;83.63;36.33;;;15.00;90.20;14.20;102266.00;;;;5015790;28;20505;-83
2021/06/06 02:45:09;;;;;;;85.75;36.60;;;15.00;90.20;14.20;102275.00;;;;5007230;28;20047;-84
2021/06/06 02:47:38;;;;;;;81.57;34.85;;;15.00;90.50;14.20;102263.00;;;;4999777;28;20049;-83
2021/06/06 02:50:20;;;;;;;78.60;34.55;;;15.00;90.30;14.20;102260.00;;;;5008371;28;20851;-84
2021/06/06 02:52:53;;;;;;;78.07;34.65;;;15.00;90.20;14.20;102265.00;;;;5011144;28;20064;-85
2021/06/06 02:55:34;;;;;;;78.68;36.70;;;15.00;90.20;14.20;102264.00;;;;4992411;28;20417;-83
2021/06/06 02:58:10;;;;;;;74.28;34.22;;;15.00;90.20;14.20;102262.00;;;;5005011;28;20061;-84
2021/06/06 03:00:46;;;;;;;68.70;32.67;;;15.00;90.20;14.20;102261.00;;;;4980636;28;20576;-83
2021/06/06 03:03:20;;;;;;;69.97;33.67;;;14.90;90.10;14.20;102259.00;;;;5005824;28;20057;-84
2021/06/06 03:05:48;;;;;;;70.60;33.20;;;14.90;90.10;14.20;102243.00;;;;5009366;28;20057;-84
2021/06/06 03:08:19;;;;;;;74.25;33.92;;;14.90;90.20;14.20;102254.00;;;;4992693;28;20123;-83
2021/06/06 03:10:50;;;;;;;66.25;33.13;;;;;14.20;102260.00;;;;4983754;28;20587;-84
2021/06/06 03:13:33;;;;;;;66.72;31.58;;;14.90;90.20;14.10;102262.00;;;;4997426;28;20107;-84
2021/06/06 03:16:03;;;;;;;61.88;31.13;;;14.90;90.10;14.20;102256.00;;;;5026133;28;20048;-83
2021/06/06 03:18:40;;;;;;;61.85;30.02;;;14.90;90.10;14.10;102252.00;;;;5024152;28;20072;-82
2021/06/06 03:21:20;;;;;;;61.00;29.92;;;14.90;90.20;14.10;102256.00;;;;5010178;28;20111;-83
2021/06/06 03:24:00;;;;;;;62.25;29.85;;;14.90;90.20;14.10;102260.00;;;;4995307;28;20266;-83
2021/06/06 03:26:34;;;;;;;67.10;30.38;;;14.80;90.20;14.10;102267.00;;;;5013773;28;20045;-82
2021/06/06 03:29:08;;;;;;;64.55;29.80;;;14.90;90.20;14.10;102253.00;;;;5008568;28;20037;-84
2021/06/06 03:31:45;;;;;;;69.30;31.08;;;14.80;90.20;14.10;102243.00;;;;5011558;28;20049;-82
2021/06/06 03:34:14;;;;;;;60.78;30.65;;;14.90;90.30;14.10;102253.00;;;;5005214;28;20045;-83
2021/06/06 03:36:47;;;;;;;65.13;31.55;;;14.80;90.30;14.10;102254.00;;;;4996112;28;20041;-83
2021/06/06 03:39:45;;;;;;;57.50;28.77;;;14.80;90.30;14.10;102261.00;;;;4994109;28;20069;-82
2021/06/06 03:42:18;;;;;;;55.97;29.02;;;14.80;90.20;14.10;102258.00;;;;4993257;28;20046;-82
2021/06/06 03:44:49;;;;;;;59.38;29.30;;;14.90;90.20;14.20;102250.00;;;;5011407;28;20084;-83
2021/06/06 03:47:19;;;;;;;57.60;29.45;;;14.90;90.10;14.20;102261.00;;;;4996466;28;20561;-82
2021/06/06 03:49:47;;;;;;;63.60;30.95;;;14.90;90.00;14.10;102261.00;;;;5008735;28;20049;-83
2021/06/06 03:52:14;;;;;;;62.33;29.27;;;14.90;90.00;14.10;102245.00;;;;5010395;28;20049;-84
2021/06/06 03:54:40;;;;;;;64.40;29.10;;;14.90;90.20;14.10;102250.00;;;;4998922;28;20045;-84
2021/06/06 03:57:07;;;;;;;60.30;30.05;;;14.80;90.00;14.10;102259.00;;;;5012688;28;20052;-85
2021/06/06 03:59:37;;;;;;;63.58;30.90;;;;;14.10;102260.00;;;;5009557;28;20057;-84
2021/06/06 04:02:04;;;;;;;61.00;30.42;;;14.80;90.20;14.00;102265.00;;;;5013119;28;20053;-85
2021/06/06 04:04:35;;;;;;;68.28;32.03;;;;;14.10;102267.00;;;;5002300;28;20038;-84
2021/06/06 04:07:03;;;;;;;66.32;31.27;;;14.80;90.20;14.10;102261.00;;;;5001170;28;20559;-84
2021/06/06 04:09:30;;;;;;;66.20;33.00;;;14.90;90.20;14.10;102272.00;;;;4996061;28;20052;-84
2021/06/06 04:11:57;;;;;;;68.03;31.42;;;14.90;90.10;14.20;102270.00;;;;5008598;28;20702;-85
2021/06/06 04:14:23;;;;;;;62.63;31.52;;;14.90;90.10;14.10;102269.00;;;;5010284;28;20111;-84
2021/06/06 04:16:55;;;;;;;64.00;32.05;;;14.90;90.10;14.10;102253.00;;;;5011522;28;20049;-84
2021/06/06 04:19:23;;;;;;;71.30;34.92;;;14.90;90.20;14.10;102257.00;;;;4984972;28;20431;-84
2021/06/06 04:21:50;;;;;;;74.10;34.58;;;;;14.10;102263.00;;;;5013880;28;20045;-85
2021/06/06 04:24:19;;;;;;;73.25;34.75;;;;;14.10;102260.00;;;;5023586;28;20050;-85
2021/06/06 04:26:49;;;;;;;72.63;34.45;;;14.80;90.20;14.10;102267.00;;;;5017985;28;20041;-85
2021/06/06 04:29:19;;;;;;;69.70;32.55;;;14.80;90.20;14.10;102264.00;;;;4997980;28;20107;-84
2021/06/06 04:31:48;;;;;;;60.75;30.92;;;14.90;90.20;14.10;102276.00;;;;4999463;28;20046;-85
2021/06/06 04:34:18;;;;;;;59.75;30.85;;;14.90;90.20;14.20;102275.00;;;;5014606;28;20037;-84
2021/06/06 04:36:49;;;;;;;66.53;30.65;;;14.90;90.20;14.20;102270.00;;;;5016874;28;20048;-85
2021/06/06 04:39:17;;;;;;;61.75;29.95;;;14.90;90.30;14.20;102275.00;;;;4986746;28;20057;-84
2021/06/06 04:41:45;;;;;;;53.28;28.35;;;15.00;90.20;14.30;102273.00;;;;5010032;28;20998;-85
2021/06/06 04:44:11;;;;;;;70.00;32.05;;;15.00;90.20;14.30;102273.00;;;;5013462;28;20129;-83
2021/06/06 04:46:38;;;;;;;67.53;31.40;;;15.00;90.10;14.30;102276.00;;;;5012217;28;20116;-84
2021/06/06 04:49:05;;;;;;;;;;;15.00;90.10;14.20;102274.00;;;;5000896;28;20060;-84
2021/06/06 04:51:33;;;;;;;67.63;31.83;;;15.00;90.10;14.20;102269.00;;;;4999366;28;19931;-84
2021/06/06 04:54:11;;;;;;;76.07;32.97;;;14.90;90.10;14.20;102266.00;;;;5012686;28;20052;-85
2021/06/06 04:56:38;;;;;;;68.32;32.88;;;14.90;90.10;14.20;102266.00;;;;4978529;28;20588;-85
2021/06/06 04:59:04;;;;;;;65.68;32.38;;;14.90;90.20;14.10;102264.00;;;;5000868;28;20065;-84
2021/06/06 05:01:32;;;;;;;73.28;33.00;;;14.90;90.30;14.10;102266.00;;;;4999457;28;20037;-85
2021/06/06 05:04:03;;;;;;;73.13;33.03;;;14.90;90.30;14.10;102267.00;;;;5011627;28;20227;-86
2021/06/06 05:06:29;;;;;;;84.00;36.42;;;14.80;90.50;14.20;102275.00;;;;5010890;28;20120;-85
2021/06/06 05:09:01;;;;;;;80.28;35.60;;;14.90;90.30;14.10;102274.00;;;;5013421;28;20050;-85
2021/06/06 05:11:28;;;;;;;87.82;36.65;;;14.90;90.30;14.10;102276.00;;;;5014972;28;20494;-85
2021/06/06 05:13:55;;;;;;;84.60;34.70;;;14.90;90.40;14.10;102278.00;;;;5013800;28;20107;-85
2021/06/06 05:16:22;;;;;;;96.32;38.97;;;14.90;90.40;14.10;102280.00;;;;4999632;28;20480;-85
2021/06/06 05:18:50;;;;;;;111.03;40.50;;;14.90;90.40;14.10;102271.00;;;;5004898;28;20636;-85
2021/06/06 05:21:16;;;;;;;113.45;39.40;;;14.80;90.50;14.10;102285.00;;;;4996069;28;20057;-84
2021/06/06 05:23:44;;;;;;;101.63;37.55;;;14.80;90.60;14.00;102270.00;;;;5012762;28;20150;-85
2021/06/06 05:26:14;;;;;;;120.45;40.67;;;;;14.10;102280.00;;;;4982287;28;20038;-83
2021/06/06 05:28:45;;;;;;;110.72;39.10;;;14.80;90.70;14.10;102279.00;;;;5015875;28;20394;-83
2021/06/06 05:31:11;;;;;;;111.93;38.17;;;14.80;90.70;14.10;102284.00;;;;4983813;28;20068;-84
2021/06/06 05:33:38;;;;;;;112.75;39.50;;;14.80;90.70;14.00;102275.00;;;;5013932;28;20045;-84
2021/06/06 05:36:07;;;;;;;131.13;41.55;;;14.80;90.80;14.00;102287.00;;;;5013158;28;20042;-85
2021/06/06 05:38:34;;;;;;;104.57;36.97;;;14.80;90.90;14.00;102285.00;;;;4982201;28;20048;-83
2021/06/06 05:41:02;;;;;;;112.18;39.47;;;14.80;90.90;14.00;102288.00;;;;5012100;28;20037;-84
2021/06/06 05:43:28;;;;;;;112.20;38.50;;;14.80;91.00;14.10;102284.00;;;;4999706;28;20049;-84
2021/06/06 05:45:56;;;;;;;108.93;37.75;;;14.80;91.00;14.10;102287.00;;;;5039739;28;20044;-84
2021/06/06 05:48:24;;;;;;;73.75;31.83;;;14.80;91.00;14.10;102293.00;;;;5022460;28;20505;-84
2021/06/06 05:50:52;;;;;;;84.28;34.10;;;;;14.10;102292.00;;;;5021625;28;20048;-84
2021/06/06 05:53:35;;;;;;;91.80;34.78;;;;;14.10;102306.00;;;;5020250;28;20056;-84
2021/06/06 05:56:04;;;;;;;;;;;14.80;91.00;14.00;102290.00;;;;5033374;28;20080;-84
2021/06/06 05:58:31;;;;;;;90.82;33.85;;;14.80;90.90;14.10;102290.00;;;;5033513;28;19978;-85
2021/06/06 06:01:00;;;;;;;85.45;33.97;;;14.90;91.00;14.10;102293.00;;;;5001856;28;20045;-84
2021/06/06 06:03:27;;;;;;;88.63;33.70;;;14.80;90.90;14.00;102283.00;;;;5033713;28;20135;-84
2021/06/06 06:05:54;;;;;;;93.40;35.20;;;14.80;91.00;14.10;102286.00;;;;4986940;28;20136;-86
2021/06/06 06:08:31;;;;;;;99.53;34.88;;;14.80;90.90;14.00;102301.00;;;;5015559;28;20287;-84
2021/06/06 06:11:07;;;;;;;103.80;36.42;;;14.80;91.00;14.00;102296.00;;;;5034090;28;20049;-84
2021/06/06 06:13:34;;;;;;;87.30;33.45;;;14.80;91.00;14.00;102303.00;;;;5000786;28;20119;-85
2021/06/06 06:16:05;;;;;;;93.72;35.47;;;14.80;91.30;14.00;102294.00;;;;5014898;28;20028;-84
2021/06/06 06:18:34;;;;;;;95.65;35.97;;;;;14.00;102304.00;;;;4986023;28;20711;-84
2021/06/06 06:21:01;;;;;;;105.05;36.83;;;14.80;91.10;14.00;102302.00;;;;5015947;28;20105;-84
2021/06/06 06:23:28;;;;;;;100.03;36.22;;;14.70;91.20;14.00;102295.00;;;;5003786;28;20495;-84
2021/06/06 06:25:55;;;;;;;90.53;34.83;;;15.70;91.40;14.10;102295.00;;;;5028759;28;20075;-85
2021/06/06 06:28:23;;;;;;;91.50;34.13;;;14.80;91.10;14.10;102292.00;;;;5014364;28;20064;-84
2021/06/06 06:31:09;;;;;;;108.85;36.72;;;14.80;91.20;14.10;102292.00;;;;5016904;28;20500;-84
2021/06/06 06:33:59;;;;;;;92.45;33.10;;;;;14.10;102301.00;;;;5018298;28;21385;-85
2021/06/06 06:36:26;;;;;;;92.22;33.17;;;;;14.10;102298.00;;;;5001484;28;20045;-85
2021/06/06 06:38:53;;;;;;;80.80;32.03;;;14.90;91.20;14.10;102303.00;;;;5014952;28;20094;-85
2021/06/06 06:41:21;;;;;;;83.32;31.10;;;14.90;91.10;14.10;102293.00;;;;5016864;28;20059;-84
2021/06/06 06:43:49;;;;;;;85.30;32.17;;;;;14.10;102302.00;;;;5015738;28;20063;-84
2021/06/06 06:46:15;;;;;;;79.15;32.00;;;14.90;91.10;14.10;102286.00;;;;5015544;28;20098;-82
2021/06/06 06:48:42;;;;;;;82.90;29.38;;;;;14.20;102302.00;;;;4999957;28;20038;-83
2021/06/06 06:51:09;;;;;;;65.35;29.73;;;14.90;91.20;14.20;102304.00;;;;5033987;28;20718;-84
2021/06/06 06:53:35;;;;;;;69.85;30.42;;;15.00;91.20;14.20;102304.00;;;;5029902;28;20583;-85
2021/06/06 06:56:02;;;;;;;70.63;29.10;;;14.90;91.10;14.20;102299.00;;;;5032617;28;20044;-84
2021/06/06 06:58:28;;;;;;;67.70;27.50;;;15.00;91.10;14.20;102297.00;;;;5015997;28;20719;-85
2021/06/06 07:00:55;;;;;;;70.82;29.27;;;15.00;91.10;14.20;102301.00;;;;5013837;28;20041;-84
2021/06/06 07:03:26;;;;;;;69.43;28.55;;;15.00;91.20;14.30;102289.00;;;;5018561;28;20048;-84
2021/06/06 07:05:58;;;;;;;66.28;28.83;;;15.00;91.10;14.30;102286.00;;;;5013692;28;20086;-85
2021/06/06 07:08:30;;;;;;;63.85;29.25;;;15.10;91.00;14.30;102298.00;;;;5002580;28;20110;-84
2021/06/06 07:10:57;;;;;;;68.43;29.67;;;;;14.30;102302.00;;;;5002618;28;20501;-85
2021/06/06 07:13:25;;;;;;;61.28;27.38;;;15.10;91.00;14.40;102307.00;;;;5014951;28;20048;-83
2021/06/06 07:15:53;;;;;;;57.28;28.73;;;;;14.50;102309.00;;;;5001036;28;20064;-85
2021/06/06 07:18:22;;;;;;;59.22;28.25;;;15.20;90.90;14.60;102311.00;;;;5014848;28;20044;-84
2021/06/06 07:20:53;;;;;;;53.10;27.05;;;15.30;90.80;14.60;102307.00;;;;5002615;28;20478;-84
2021/06/06 07:23:23;;;;;;;51.75;25.85;;;15.30;90.90;14.60;102309.00;;;;4999945;28;20567;-84
2021/06/06 07:25:50;;;;;;;47.15;24.42;;;15.40;90.80;14.70;102310.00;;;;5031738;28;20716;-84
2021/06/06 07:28:23;;;;;;;51.45;25.98;;;15.50;90.70;14.80;102311.00;;;;5030852;28;20045;-84
2021/06/06 07:30:56;;;;;;;49.00;23.77;;;15.50;90.60;14.80;102322.00;;;;5015284;28;20676;-84
2021/06/06 07:33:28;;;;;;;46.13;24.48;;;15.50;90.60;14.80;102318.00;;;;5016543;28;20458;-84
2021/06/06 07:35:56;;;;;;;45.75;24.33;;;;;14.80;102312.00;;;;5029525;28;20485;-84
2021/06/06 07:38:23;;;;;;;;;;;15.50;90.50;14.80;102313.00;;;;5030580;28;20041;-84
2021/06/06 07:40:52;;;;;;;41.67;22.70;;;15.60;90.40;14.90;102315.00;;;;5034422;28;20737;-84
2021/06/06 07:43:18;;;;;;;44.42;22.52;;;15.60;90.20;15.00;102305.00;;;;5001750;28;20044;-84
2021/06/06 07:45:44;;;;;;;40.55;22.45;;;15.60;90.20;14.90;102310.00;;;;4997431;28;20041;-84
2021/06/06 07:48:12;;;;;;;46.67;23.52;;;15.60;90.20;15.00;102312.00;;;;5008341;28;20611;-82
2021/06/06 07:50:45;;;;;;;41.20;22.17;;;15.70;90.20;15.00;102306.00;;;;4995643;28;20052;-84
2021/06/06 07:53:13;;;;;;;38.17;21.83;;;15.70;90.20;15.10;102308.00;;;;5011188;28;20045;-84
2021/06/06 07:55:39;;;;;;;39.92;22.40;;;15.70;90.10;15.10;102295.00;;;;5026901;28;20045;-84
2021/06/06 07:58:06;;;;;;;40.90;22.58;;;15.80;90.00;15.10;102318.00;;;;5013152;28;20085;-83
2021/06/06 08:00:40;;;;;;;36.90;21.48;;;15.80;90.00;15.20;102310.00;;;;4993143;28;20037;-84
2021/06/06 08:03:07;;;;;;;36.10;21.77;;;15.90;90.00;15.20;102314.00;;;;4992678;28;20054;-85
2021/06/06 08:05:39;;;;;;;33.20;20.65;;;15.90;89.70;15.30;102309.00;;;;4994232;28;20359;-85
2021/06/06 08:08:07;;;;;;;34.55;21.15;;;;;15.30;102318.00;;;;5014757;28;20050;-84
2021/06/06 08:10:36;;;;;;;32.55;20.70;;;16.00;89.60;15.40;102313.00;;;;4996378;28;20137;-85
2021/06/06 08:13:02;;;;;;;32.47;20.38;;;16.10;89.60;15.50;102323.00;;;;5025532;28;21075;-84
2021/06/06 08:15:29;;;;;;;33.55;21.50;;;16.10;89.40;15.50;102321.00;;;;5006214;28;21008;-84
2021/06/06 08:17:57;;;;;;;36.17;20.47;;;16.70;89.40;15.50;102312.00;;;;4994474;28;20111;-85
2021/06/06 08:20:30;;;;;;;32.10;20.48;;;16.20;89.30;15.50;102319.00;;;;5010252;28;20751;-83
2021/06/06 08:22:57;;;;;;;31.15;18.60;;;16.20;89.20;15.60;102318.00;;;;5009759;28;20083;-85
2021/06/06 08:25:24;;;;;;;34.78;19.92;;;16.30;88.80;15.70;102313.00;;;;5012193;28;20283;-85
2021/06/06 08:27:51;;;;;;;32.05;19.25;;;16.30;88.60;15.70;102319.00;;;;4991640;28;20282;-84
2021/06/06 08:30:32;;;;;;;30.33;19.23;;;16.40;88.40;15.80;102326.00;;;;5010617;28;20167;-84
2021/06/06 08:32:58;;;;;;;25.48;17.67;;;;;15.80;102329.00;;;;5011616;28;20049;-85
2021/06/06 08:35:25;;;;;;;27.90;17.67;;;;;15.80;102327.00;;;;5007323;28;20037;-85
2021/06/06 08:37:51;;;;;;;27.08;17.38;;;16.40;88.00;15.90;102324.00;;;;5010105;28;20068;-86
2021/06/06 08:41:01;;;;;;;24.05;16.92;;;16.80;87.70;15.90;102322.00;;;;5007826;28;20042;-87
2021/06/06 08:43:57;;;;;;;;;;;16.60;87.50;15.90;102316.00;;;;5005862;28;20041;-84
2021/06/06 08:46:25;;;;;;;26.75;18.02;;;16.70;87.90;16.10;102325.00;;;;5008803;28;20030;-85
2021/06/06 08:48:51;;;;;;;26.23;17.63;;;16.70;87.40;16.10;102330.00;;;;5029499;28;20052;-85
2021/06/06 08:51:37;;;;;;;26.85;17.40;;;16.80;87.00;16.20;102328.00;;;;5032615;28;20037;-85
2021/06/06 08:54:36;;;;;;;25.48;17.42;;;16.90;86.90;16.20;102321.00;;;;5030261;28;20049;-85
2021/06/06 08:57:21;;;;;;;22.45;16.02;;;16.90;86.40;16.30;102330.00;;;;5001726;28;20096;-85
2021/06/06 08:59:55;;;;;;;23.27;16.92;;;17.00;86.40;16.40;102327.00;;;;4995023;28;20046;-85
2021/06/06 09:02:27;;;;;;;23.75;16.33;;;17.00;86.10;16.40;102332.00;;;;4995604;28;20041;-85
2021/06/06 09:04:54;;;;;;;21.02;15.65;;;17.00;85.50;16.40;102331.00;;;;5021256;28;20053;-84
2021/06/06 09:07:42;;;;;;;20.25;15.00;;;17.00;85.10;16.30;102331.00;;;;5012742;28;20628;-85
2021/06/06 09:10:38;;;;;;;20.13;15.25;;;17.10;85.60;16.50;102318.00;;;;4997533;28;20030;-85
2021/06/06 09:13:09;;;;;;;19.65;15.40;;;17.10;84.90;16.60;102344.00;;;;5024242;28;20434;-86
2021/06/06 09:15:36;;;;;;;18.42;13.75;;;17.20;84.60;16.70;102344.00;;;;5018841;28;20114;-86
2021/06/06 09:18:27;;;;;;;17.45;14.55;;;17.30;84.00;16.70;102335.00;;;;5001394;28;20030;-85
2021/06/06 09:21:08;;;;;;;19.15;14.90;;;17.30;84.50;16.80;102343.00;;;;5000458;28;20037;-85
2021/06/06 09:23:34;;;;;;;18.42;14.38;;;17.50;84.20;17.00;102342.00;;;;4992998;28;20042;-85
2021/06/06 09:26:26;;;;;;;19.25;14.75;;;17.60;83.60;17.10;102338.00;;;;5010542;28;20045;-86
2021/06/06 09:29:19;;;;;;;21.77;14.50;;;17.70;82.70;17.20;102343.00;;;;5012348;28;20077;-85
2021/06/06 09:31:46;;;;;;;22.92;14.55;;;;;17.20;102352.00;;;;5013923;28;20052;-85
2021/06/06 09:34:20;;;;;;;17.90;14.35;;;17.70;82.70;17.10;102350.00;;;;5012324;28;20561;-82
2021/06/06 09:37:20;;;;;;;19.00;14.25;;;17.70;82.00;17.10;102351.00;;;;5016754;28;20224;-81
2021/06/06 09:39:58;;;;;;;24.00;14.55;;;17.70;81.80;17.10;102356.00;;;;4974061;28;20397;-85
2021/06/06 09:42:42;;;;;;;18.25;13.73;;;17.60;81.80;17.00;102338.00;;;;4982766;28;20038;-83
2021/06/06 09:45:32;;;;;;;18.13;14.02;;;17.60;82.50;17.10;102357.00;;;;4998483;28;20041;-83
2021/06/06 09:48:16;;;;;;;18.08;14.10;;;17.70;82.60;17.30;102351.00;;;;5000276;28;20059;-83
2021/06/06 09:50:45;;;;;;;17.00;13.18;;;;;17.60;102357.00;;;;4998198;28;20580;-83
2021/06/06 09:53:31;;;;;;;21.17;13.68;;;18.10;80.90;17.60;102359.00;;;;5022365;28;20046;-83
2021/06/06 09:56:11;;;;;;;16.95;12.77;;;;;17.70;102355.00;;;;4996781;28;20046;-85
2021/06/06 09:58:39;;;;;;;18.52;13.35;;;18.30;80.80;17.90;102344.00;;;;5013374;28;20405;-84
2021/06/06 10:01:25;;;;;;;19.38;12.40;;;;;18.00;102348.00;;;;4994909;28;20053;-83
2021/06/06 10:03:57;;;;;;;18.70;12.15;;;18.50;79.60;18.00;102351.00;;;;4999547;28;20049;-84
2021/06/06 10:06:33;;;;;;;15.75;11.45;;;18.50;79.20;18.10;102366.00;;;;4995648;28;20453;-84
2021/06/06 10:09:27;;;;;;;15.23;11.15;;;18.70;78.10;18.20;102361.00;;;;5009728;28;20049;-85
2021/06/06 10:12:11;;;;;;;14.25;11.00;;;18.80;78.50;18.30;102361.00;;;;5012049;28;20054;-84
2021/06/06 10:14:49;;;;;;;17.63;11.18;;;18.90;78.20;18.40;102364.00;;;;5015394;28;20045;-83
2021/06/06 10:17:28;;;;;;;12.40;10.13;;;18.90;78.50;18.50;102351.00;;;;5026654;28;20108;-83
2021/06/06 10:20:26;;;;;;;13.95;10.02;;;19.10;77.70;18.60;102362.00;;;;5013723;28;20528;-83
2021/06/06 10:22:57;;;;;;;13.15;9.27;;;;;18.60;102364.00;;;;4983737;28;20372;-86
2021/06/06 10:25:26;;;;;;;12.77;9.25;;;;;18.60;102365.00;;;;4998353;28;20069;-88
2021/06/06 10:27:58;;;;;;;10.55;8.63;;;19.20;77.00;18.60;102354.00;;;;5009063;28;20059;-85
2021/06/06 10:30:52;;;;;;;11.00;8.70;;;19.10;76.80;18.50;102354.00;;;;5010895;28;20045;-85
2021/06/06 10:33:42;;;;;;;11.00;8.55;;;19.20;76.50;18.60;102363.00;;;;4970702;28;20834;-85
2021/06/06 10:36:09;;;;;;;13.82;8.88;;;19.30;77.50;18.90;102369.00;;;;5011298;28;20058;-86
2021/06/06 10:38:39;;;;;;;;;;;19.40;75.20;19.00;102361.00;;;;4996827;28;20112;-85
2021/06/06 10:41:37;;;;;;;9.43;7.57;;;19.40;74.20;18.90;102360.00;;;;4988357;28;20017;-86
2021/06/06 10:44:22;;;;;;;8.57;6.80;;;;;18.90;102365.00;;;;4992770;28;20233;-85
2021/06/06 10:46:54;;;;;;;10.27;7.50;;;19.50;75.50;18.90;102353.00;;;;5011996;28;20117;-86
2021/06/06 10:49:30;;;;;;;10.95;7.72;;;;;18.90;102362.00;;;;5010618;28;20045;-86
2021/06/06 10:52:35;;;;;;;10.98;7.80;;;19.50;74.80;18.90;102351.00;;;;5025403;28;20054;-84
2021/06/06 10:55:27;;;;;;;14.52;8.10;;;19.50;74.40;19.10;102357.00;;;;5010585;28;20046;-86
2021/06/06 10:57:54;;;;;;;11.75;8.15;;;19.70;74.80;19.20;102350.00;;;;4980790;28;20045;-85
2021/06/06 11:00:39;;;;;;;12.13;8.18;;;19.70;73.80;19.20;102356.00;;;;4998700;28;20045;-84
2021/06/06 11:03:11;;;;;;;9.52;7.53;;;19.90;74.10;19.50;102350.00;;;;5013819;28;20045;-86
2021/06/06 11:05:53;;;;;;;10.50;7.40;;;20.10;73.90;19.80;102351.00;;;;5015598;28;20064;-87
2021/06/06 11:08:28;;;;;;;10.77;6.45;;;20.40;72.20;20.00;102349.00;;;;5008049;28;20168;-86
2021/06/06 11:11:10;;;;;;;8.00;6.22;;;20.50;72.80;20.10;102340.00;;;;5030704;28;20037;-85
2021/06/06 11:13:45;;;;;;;9.45;7.10;;;20.60;71.50;20.10;102352.00;;;;5012906;28;20063;-85